Time;durP1;ratioP1;P1;durP2;ratioP2;P2;SDS_P1;SDS_P2;PMS_P1;PMS_P2;Temp;Humidity;BMP_temperature;BMP_pressure;BME280_temperature;BME280_humidity;BME280_pressure;Samples;Min_cycle;Max_cycle;Signal;HPM_P1;HPM_P2
2022/09/05 00:02:27;;;;;;;2.47;2.28;;;19.90;95.30;;;;;;4978445;28;20085;-75
2022/09/05 00:05:08;;;;;;;3.85;2.70;;;19.90;95.90;;;;;;4993425;28;20061;-75
2022/09/05 00:07:52;;;;;;;2.83;2.47;;;19.80;95.40;;;;;;4993331;28;20462;-75
2022/09/05 00:10:20;;;;;;;3.95;2.50;;;19.80;95.50;;;;;;4993575;28;20089;-75
2022/09/05 00:12:48;;;;;;;3.97;2.45;;;19.80;96.00;;;;;;4992995;28;20538;-74
2022/09/05 00:15:24;;;;;;;3.13;2.45;;;19.70;95.80;;;;;;4993891;28;20413;-75
2022/09/05 00:18:16;;;;;;;3.60;2.22;;;19.70;95.90;;;;;;4992697;28;20054;-74
2022/09/05 00:21:15;;;;;;;3.40;2.40;;;19.70;95.40;;;;;;4993259;28;20050;-74
2022/09/05 00:24:06;;;;;;;2.95;2.45;;;19.80;95.80;;;;;;4994214;28;20050;-75
2022/09/05 00:27:05;;;;;;;3.05;2.55;;;19.60;95.80;;;;;;4997451;28;20086;-75
2022/09/05 00:29:51;;;;;;;2.88;2.47;;;19.70;96.10;;;;;;4997632;28;20081;-74
2022/09/05 00:32:29;;;;;;;3.00;2.67;;;19.80;96.20;;;;;;4995830;28;20046;-74
2022/09/05 00:35:17;;;;;;;4.32;2.58;;;19.60;96.40;;;;;;4996578;28;20134;-74
2022/09/05 00:37:47;;;;;;;4.72;2.42;;;19.70;96.70;;;;;;4996781;28;20177;-74
2022/09/05 00:40:12;;;;;;;3.20;2.55;;;19.60;97.30;;;;;;4996816;28;20090;-74
2022/09/05 00:42:39;;;;;;;3.35;2.60;;;19.60;97.70;;;;;;4996464;28;20112;-74
2022/09/05 00:45:11;;;;;;;3.45;2.95;;;19.70;97.90;;;;;;4996626;28;20053;-74
2022/09/05 00:47:45;;;;;;;2.72;2.53;;;19.50;98.00;;;;;;4996328;28;20046;-74
2022/09/05 00:50:34;;;;;;;3.83;2.50;;;19.60;97.70;;;;;;4996291;28;20109;-74
2022/09/05 00:53:28;;;;;;;3.88;2.75;;;19.60;98.00;;;;;;4996178;28;20062;-74
2022/09/05 00:56:25;;;;;;;3.42;3.10;;;19.50;97.70;;;;;;4996868;28;20046;-74
2022/09/05 00:59:24;;;;;;;4.22;3.17;;;19.60;98.20;;;;;;4996727;28;20053;-74
2022/09/05 01:02:03;;;;;;;3.03;2.72;;;19.50;98.00;;;;;;4995828;28;20133;-74
2022/09/05 01:04:49;;;;;;;4.60;2.70;;;19.50;98.50;;;;;;4996483;28;20062;-74
2022/09/05 01:07:38;;;;;;;3.72;3.03;;;19.50;98.50;;;;;;4994988;28;20116;-74
2022/09/05 01:10:27;;;;;;;3.00;2.80;;;19.40;97.90;;;;;;4996134;28;20395;-74
2022/09/05 01:13:20;;;;;;;3.75;2.72;;;19.40;97.90;;;;;;4996005;28;20057;-74
2022/09/05 01:16:03;;;;;;;3.35;2.95;;;19.40;97.50;;;;;;4995816;28;20039;-74
2022/09/05 01:18:46;;;;;;;3.67;2.78;;;19.30;97.30;;;;;;4995769;28;20046;-74
2022/09/05 01:21:48;;;;;;;3.85;2.90;;;19.40;97.30;;;;;;4979048;28;20090;-74
2022/09/05 01:24:52;;;;;;;3.75;3.00;;;19.40;96.60;;;;;;4996399;28;20046;-75
2022/09/05 01:27:46;;;;;;;4.05;3.13;;;19.40;96.20;;;;;;4995776;28;20050;-75
2022/09/05 01:30:29;;;;;;;2.95;2.65;;;19.20;96.10;;;;;;4996053;28;20057;-74
2022/09/05 01:33:06;;;;;;;3.17;2.88;;;19.30;96.20;;;;;;4995303;28;20136;-74
2022/09/05 01:35:50;;;;;;;3.85;3.00;;;19.20;96.80;;;;;;4994917;28;20114;-75
2022/09/05 01:38:43;;;;;;;3.83;2.80;;;19.20;96.40;;;;;;4995622;28;20050;-74
2022/09/05 01:41:20;;;;;;;3.63;2.97;;;19.10;93.80;;;;;;4995594;28;20052;-75
2022/09/05 01:44:01;;;;;;;2.97;2.70;;;19.10;94.10;;;;;;4995899;28;20057;-75
2022/09/05 01:46:38;;;;;;;3.30;3.00;;;19.00;93.80;;;;;;4995150;28;20049;-75
2022/09/05 01:49:23;;;;;;;3.70;3.05;;;19.00;94.00;;;;;;4995323;28;20042;-75
2022/09/05 01:52:25;;;;;;;5.00;3.40;;;19.00;94.00;;;;;;4994508;28;20463;-75
2022/09/05 01:55:08;;;;;;;3.35;2.97;;;18.90;94.00;;;;;;4994452;28;20054;-75
2022/09/05 01:57:49;;;;;;;3.47;3.17;;;18.90;94.10;;;;;;4995344;28;20058;-75
2022/09/05 02:00:38;;;;;;;5.93;3.05;;;18.90;94.20;;;;;;4995598;28;20058;-75
2022/09/05 02:03:22;;;;;;;3.50;3.20;;;18.90;94.50;;;;;;4995713;28;20112;-74
2022/09/05 02:06:45;;;;;;;2.88;2.55;;;18.80;94.20;;;;;;4993814;28;20041;-73
2022/09/05 02:09:38;;;;;;;2.95;2.72;;;18.80;94.10;;;;;;4992766;28;20149;-73
2022/09/05 02:13:03;;;;;;;6.75;3.22;;;18.80;94.10;;;;;;4992745;28;20046;-74
2022/09/05 02:15:36;;;;;;;3.67;3.33;;;18.80;94.20;;;;;;4954030;29;20044;-74
2022/09/05 02:18:10;;;;;;;3.65;2.75;;;18.90;94.60;;;;;;4953793;29;20098;-73
2022/09/05 02:20:48;;;;;;;2.90;2.60;;;18.80;94.70;;;;;;4976943;28;20059;-74
2022/09/05 02:23:17;;;;;;;3.72;2.72;;;18.70;94.80;;;;;;4994848;28;20095;-73
2022/09/05 02:25:45;;;;;;;4.07;3.10;;;18.70;94.90;;;;;;4994202;28;20171;-73
2022/09/05 02:28:23;;;;;;;2.65;2.45;;;18.70;95.00;;;;;;4994088;28;20042;-73
2022/09/05 02:30:55;;;;;;;3.42;3.00;;;18.70;94.70;;;;;;4994514;28;20108;-74
2022/09/05 02:33:31;;;;;;;2.78;2.53;;;18.60;95.10;;;;;;4994198;28;20176;-74
2022/09/05 02:36:29;;;;;;;3.75;3.28;;;18.70;95.20;;;;;;4994647;28;20463;-74
2022/09/05 02:38:59;;;;;;;2.70;2.50;;;18.60;94.60;;;;;;4994515;28;20113;-74
2022/09/05 02:41:36;;;;;;;3.17;2.88;;;18.60;95.20;;;;;;4993278;28;20062;-74
2022/09/05 02:44:12;;;;;;;5.40;3.00;;;18.60;94.90;;;;;;4994786;28;20054;-74
2022/09/05 02:46:45;;;;;;;3.35;3.03;;;18.60;95.30;;;;;;4994276;28;20039;-74
2022/09/05 02:49:25;;;;;;;3.22;2.90;;;18.60;95.30;;;;;;4994200;28;20042;-74
2022/09/05 02:52:04;;;;;;;4.55;3.58;;;18.50;95.00;;;;;;4995247;28;20100;-74
2022/09/05 02:54:42;;;;;;;5.95;3.28;;;18.50;95.20;;;;;;4994950;28;20054;-75
2022/09/05 02:57:45;;;;;;;3.53;3.15;;;18.40;95.70;;;;;;4994662;28;20057;-74
2022/09/05 03:00:17;;;;;;;4.93;3.00;;;18.40;95.50;;;;;;4993569;28;20141;-74
2022/09/05 03:03:11;;;;;;;3.85;3.50;;;18.40;95.90;;;;;;4995300;28;20078;-75
2022/09/05 03:05:44;;;;;;;2.97;2.70;;;18.50;95.60;;;;;;4995108;28;20125;-75
2022/09/05 03:08:25;;;;;;;3.95;3.10;;;18.40;96.00;;;;;;4994419;28;20057;-74
2022/09/05 03:11:41;;;;;;;3.33;3.03;;;18.40;95.70;;;;;;4995152;28;20108;-75
2022/09/05 03:14:34;;;;;;;3.92;2.75;;;18.30;95.70;;;;;;4993622;28;20512;-74
2022/09/05 03:17:32;;;;;;;4.00;3.55;;;18.40;96.00;;;;;;4995101;28;20400;-74
2022/09/05 03:20:19;;;;;;;3.50;3.20;;;18.30;96.10;;;;;;4994220;28;20395;-74
2022/09/05 03:23:03;;;;;;;3.20;2.92;;;18.20;96.20;;;;;;4993171;28;20042;-74
2022/09/05 03:25:52;;;;;;;3.95;2.95;;;18.10;96.30;;;;;;4994222;28;20046;-74
2022/09/05 03:28:18;;;;;;;3.40;3.10;;;18.20;96.40;;;;;;4994227;28;20109;-75
2022/09/05 03:30:49;;;;;;;2.85;2.63;;;18.10;97.00;;;;;;4994106;28;20050;-74
2022/09/05 03:33:35;;;;;;;4.40;3.20;;;18.10;96.80;;;;;;4994039;28;20057;-74
2022/09/05 03:36:08;;;;;;;3.55;3.25;;;18.00;96.90;;;;;;4993793;28;20503;-74
2022/09/05 03:39:05;;;;;;;3.60;3.30;;;18.00;97.00;;;;;;4994117;28;20061;-75
2022/09/05 03:42:01;;;;;;;4.00;2.83;;;18.10;97.10;;;;;;4984659;28;20133;-74
2022/09/05 03:45:17;;;;;;;3.28;3.08;;;18.00;97.30;;;;;;4994087;28;20047;-74
2022/09/05 03:47:43;;;;;;;3.90;3.47;;;17.90;97.50;;;;;;4991881;28;20046;-74
2022/09/05 03:50:16;;;;;;;3.42;3.15;;;17.90;98.10;;;;;;4993908;28;20116;-74
2022/09/05 03:52:54;;;;;;;4.03;3.72;;;17.90;97.60;;;;;;4994801;28;20050;-74
2022/09/05 03:55:53;;;;;;;3.63;3.13;;;17.80;97.80;;;;;;4993989;28;20089;-75
2022/09/05 03:58:27;;;;;;;4.05;3.63;;;17.90;98.40;;;;;;4994450;28;20062;-75
2022/09/05 04:01:13;;;;;;;4.90;3.97;;;17.80;98.00;;;;;;4998631;28;20058;-74
2022/09/05 04:03:44;;;;;;;3.30;3.00;;;17.90;98.10;;;;;;4998252;28;20429;-74
2022/09/05 04:06:20;;;;;;;3.63;3.33;;;17.90;98.50;;;;;;4998358;28;20042;-75
2022/09/05 04:08:55;;;;;;;3.55;3.10;;;17.80;98.60;;;;;;4997699;28;20046;-74
2022/09/05 04:11:24;;;;;;;3.47;3.17;;;17.70;98.60;;;;;;4997526;28;20093;-74
2022/09/05 04:13:59;;;;;;;3.10;2.80;;;17.70;98.70;;;;;;4997535;28;20441;-73
2022/09/05 04:16:32;;;;;;;4.30;2.90;;;17.70;98.50;;;;;;4996844;28;20062;-74
2022/09/05 04:19:34;;;;;;;3.50;3.20;;;17.70;98.50;;;;;;4997458;28;20038;-74
2022/09/05 04:22:26;;;;;;;3.80;3.25;;;17.60;98.50;;;;;;4997262;28;20058;-75
2022/09/05 04:25:10;;;;;;;3.40;3.10;;;17.60;98.80;;;;;;4997855;28;20056;-74
2022/09/05 04:27:58;;;;;;;3.80;3.50;;;17.60;99.20;;;;;;4997353;28;20053;-74
2022/09/05 04:30:59;;;;;;;3.70;3.40;;;17.50;99.30;;;;;;4997755;28;20508;-74
2022/09/05 04:33:34;;;;;;;3.88;3.55;;;17.50;99.30;;;;;;4997151;28;20059;-74
2022/09/05 04:36:22;;;;;;;3.90;3.60;;;17.50;99.30;;;;;;4995982;28;20042;-74
2022/09/05 04:39:08;;;;;;;4.18;3.58;;;17.40;99.90;;;;;;4997100;28;20457;-74
2022/09/05 04:41:41;;;;;;;4.10;3.70;;;17.40;99.90;;;;;;4997175;28;20046;-75
2022/09/05 04:44:20;;;;;;;3.80;3.50;;;17.40;99.90;;;;;;4997400;28;20105;-74
2022/09/05 04:47:15;;;;;;;3.88;3.42;;;17.40;99.90;;;;;;4996988;28;20043;-74
2022/09/05 04:49:50;;;;;;;3.65;3.35;;;17.40;99.90;;;;;;4995953;28;20120;-74
2022/09/05 04:52:54;;;;;;;5.57;3.50;;;17.30;99.90;;;;;;4997462;28;20125;-75
2022/09/05 04:55:39;;;;;;;4.10;3.70;;;17.20;99.90;;;;;;4996662;28;20130;-74
2022/09/05 04:58:23;;;;;;;4.55;4.10;;;17.20;99.90;;;;;;4995808;28;20047;-73
2022/09/05 05:01:01;;;;;;;8.48;3.97;;;17.20;99.90;;;;;;4996756;28;20082;-73
2022/09/05 05:03:32;;;;;;;4.30;3.90;;;17.20;99.90;;;;;;4997071;28;20406;-74
2022/09/05 05:06:29;;;;;;;4.15;3.75;;;17.20;99.90;;;;;;4996572;28;20080;-73
2022/09/05 05:09:03;;;;;;;5.43;3.92;;;17.10;99.90;;;;;;4996325;28;20475;-75
2022/09/05 05:11:51;;;;;;;4.60;4.00;;;17.10;99.90;;;;;;4994865;28;20058;-74
2022/09/05 05:14:24;;;;;;;4.28;3.88;;;17.10;99.90;;;;;;4996452;28;20042;-74
2022/09/05 05:17:19;;;;;;;;;;;17.20;99.90;;;;;;4997433;28;20054;-75
2022/09/05 05:19:49;;;;;;;4.65;3.72;;;17.10;99.90;;;;;;4978643;28;19922;-74
2022/09/05 05:22:17;;;;;;;5.25;4.07;;;17.20;99.90;;;;;;4997128;28;20465;-75
2022/09/05 05:24:49;;;;;;;4.85;4.35;;;17.00;99.90;;;;;;4995268;28;20406;-75
2022/09/05 05:27:14;;;;;;;4.88;4.35;;;17.00;99.90;;;;;;4996120;28;20112;-74
2022/09/05 05:30:05;;;;;;;5.25;4.25;;;17.10;99.90;;;;;;4996118;28;20046;-74
2022/09/05 05:32:40;;;;;;;4.40;4.00;;;17.20;99.90;;;;;;4996124;28;20105;-74
2022/09/05 05:35:10;;;;;;;5.03;3.90;;;16.90;99.90;;;;;;4996591;28;20126;-74
2022/09/05 05:37:45;;;;;;;3.85;3.50;;;17.00;99.90;;;;;;4996028;28;20081;-74
2022/09/05 05:40:16;;;;;;;4.38;3.97;;;17.30;99.90;;;;;;4995992;28;20092;-74
2022/09/05 05:42:44;;;;;;;4.53;3.95;;;17.00;99.90;;;;;;4994981;28;20482;-74
2022/09/05 05:45:18;;;;;;;4.63;4.22;;;17.00;99.90;;;;;;4995062;28;20137;-73
2022/09/05 05:47:53;;;;;;;5.85;4.18;;;17.10;99.90;;;;;;4995816;28;20051;-74
2022/09/05 05:50:42;;;;;;;4.10;3.72;;;17.10;99.90;;;;;;4995836;28;20050;-73
2022/09/05 05:53:11;;;;;;;4.70;4.13;;;17.20;99.90;;;;;;4995072;28;20089;-73
2022/09/05 05:56:10;;;;;;;6.03;4.15;;;17.10;99.90;;;;;;4996200;28;20046;-73
2022/09/05 05:59:08;;;;;;;6.68;4.55;;;17.20;99.90;;;;;;4994730;28;20058;-73
2022/09/05 06:02:22;;;;;;;6.05;4.05;;;17.10;99.90;;;;;;4994501;28;20054;-73
2022/09/05 06:05:13;;;;;;;6.60;4.03;;;17.20;99.90;;;;;;4994951;28;20054;-73
2022/09/05 06:07:51;;;;;;;4.43;4.00;;;17.00;99.90;;;;;;4995317;28;20046;-74
2022/09/05 06:10:32;;;;;;;4.20;3.80;;;17.40;99.90;;;;;;4995646;28;20482;-73
2022/09/05 06:13:20;;;;;;;3.90;3.50;;;17.20;99.90;;;;;;4995356;28;20042;-73
2022/09/05 06:16:12;;;;;;;4.45;3.80;;;17.20;99.90;;;;;;4996087;28;20445;-74
2022/09/05 06:19:03;;;;;;;4.30;3.90;;;17.40;99.90;;;;;;4995866;28;20050;-74
2022/09/05 06:22:20;;;;;;;6.00;3.55;;;17.40;99.90;;;;;;4995446;28;20375;-74
2022/09/05 06:25:20;;;;;;;4.80;3.83;;;17.30;99.90;;;;;;4992740;28;20057;-74
2022/09/05 06:28:00;;;;;;;4.45;4.15;;;17.50;99.90;;;;;;4941786;28;20056;-73
2022/09/05 06:30:45;;;;;;;4.90;4.40;;;17.40;99.90;;;;;;4990659;28;20093;-74
2022/09/05 06:33:31;;;;;;;4.53;3.78;;;17.40;99.90;;;;;;4994926;28;20173;-74
2022/09/05 06:36:17;;;;;;;4.22;3.83;;;17.50;99.90;;;;;;4994966;28;20046;-75
2022/09/05 06:39:07;;;;;;;4.28;3.80;;;17.50;99.90;;;;;;4994940;28;20113;-73
2022/09/05 06:41:48;;;;;;;4.60;3.90;;;17.50;99.90;;;;;;4994857;28;20137;-74
2022/09/05 06:44:36;;;;;;;5.43;3.85;;;17.60;99.90;;;;;;4995038;28;20072;-74
2022/09/05 06:47:06;;;;;;;6.28;4.22;;;17.60;99.90;;;;;;4995179;28;20043;-74
2022/09/05 06:50:12;;;;;;;4.50;3.97;;;17.70;99.90;;;;;;4994766;28;20042;-74
2022/09/05 06:53:11;;;;;;;5.38;4.05;;;17.80;99.90;;;;;;4995645;28;20094;-74
2022/09/05 06:55:49;;;;;;;4.45;4.05;;;17.80;99.90;;;;;;4994741;28;20050;-74
2022/09/05 06:59:03;;;;;;;5.70;4.15;;;17.70;99.90;;;;;;4994896;28;20084;-74
2022/09/05 07:01:33;;;;;;;5.72;4.43;;;17.80;99.90;;;;;;4994952;28;20054;-74
2022/09/05 07:04:19;;;;;;;6.43;4.10;;;17.90;99.90;;;;;;4994414;28;20050;-73
2022/09/05 07:07:05;;;;;;;4.30;3.80;;;18.20;99.90;;;;;;4995009;28;20050;-74
2022/09/05 07:10:02;;;;;;;4.78;4.18;;;18.10;99.90;;;;;;4993544;28;20058;-70
2022/09/05 07:12:39;;;;;;;6.10;3.97;;;18.10;99.90;;;;;;4994527;28;20078;-72
2022/09/05 07:15:32;;;;;;;6.18;4.20;;;18.20;99.90;;;;;;4994346;28;20082;-71
2022/09/05 07:18:20;;;;;;;6.47;3.95;;;18.40;99.90;;;;;;4994039;28;20139;-70
2022/09/05 07:20:51;;;;;;;5.13;3.90;;;18.40;99.90;;;;;;4993667;28;20482;-71
2022/09/05 07:23:39;;;;;;;4.60;4.15;;;18.60;99.90;;;;;;4993455;28;20050;-70
2022/09/05 07:26:08;;;;;;;4.43;3.85;;;18.50;99.90;;;;;;4993504;28;20061;-69
2022/09/05 07:28:40;;;;;;;4.57;3.75;;;18.60;99.90;;;;;;4993736;28;20133;-70
2022/09/05 07:31:21;;;;;;;5.47;4.07;;;18.70;99.90;;;;;;4992732;28;20434;-72
2022/09/05 07:33:48;;;;;;;3.80;3.50;;;18.80;99.90;;;;;;4996686;28;20159;-70
2022/09/05 07:36:20;;;;;;;4.10;3.70;;;19.00;99.90;;;;;;5000229;28;20050;-70
2022/09/05 07:38:49;;;;;;;4.65;4.22;;;18.90;99.90;;;;;;4999548;28;20061;-70
2022/09/05 07:41:30;;;;;;;5.18;3.95;;;19.00;99.90;;;;;;5001001;28;20089;-72
2022/09/05 07:44:14;;;;;;;4.55;3.83;;;19.10;99.90;;;;;;5000454;28;20081;-71
2022/09/05 07:46:44;;;;;;;4.20;3.80;;;19.10;99.90;;;;;;4999353;28;20082;-70
2022/09/05 07:49:16;;;;;;;4.60;4.20;;;19.10;99.90;;;;;;4999761;28;20046;-70
2022/09/05 07:51:59;;;;;;;;;;;19.20;99.90;;;;;;5000573;28;20053;-71
2022/09/05 07:54:28;;;;;;;5.65;4.18;;;19.30;99.90;;;;;;5000142;28;20392;-72
2022/09/05 07:57:05;;;;;;;4.95;4.35;;;19.20;99.90;;;;;;4999762;28;20050;-72
2022/09/05 07:59:36;;;;;;;5.07;4.65;;;19.50;99.90;;;;;;5000580;28;20066;-70
2022/09/05 08:02:04;;;;;;;5.47;5.07;;;19.60;99.90;;;;;;4999601;28;20073;-71
2022/09/05 08:04:36;;;;;;;5.60;5.13;;;19.50;99.90;;;;;;4999716;28;20042;-70
2022/09/05 08:07:28;;;;;;;5.63;5.05;;;19.70;99.90;;;;;;4999887;28;20057;-71
2022/09/05 08:10:26;;;;;;;8.52;4.80;;;19.80;99.90;;;;;;4999608;28;20096;-70
2022/09/05 08:13:03;;;;;;;6.07;5.15;;;19.70;99.90;;;;;;4991125;28;20145;-70
2022/09/05 08:15:29;;;;;;;4.93;3.97;;;20.00;99.90;;;;;;5000153;28;20046;-71
2022/09/05 08:18:01;;;;;;;5.00;4.57;;;19.80;99.90;;;;;;4998335;28;20043;-71
2022/09/05 08:20:57;;;;;;;5.85;4.55;;;20.00;99.90;;;;;;4999774;28;20372;-71
2022/09/05 08:23:55;;;;;;;4.68;4.28;;;19.90;99.90;;;;;;4999631;28;20139;-71
2022/09/05 08:26:50;;;;;;;5.63;4.80;;;20.10;99.90;;;;;;4999549;28;20049;-72
2022/09/05 08:29:25;;;;;;;6.05;4.95;;;20.30;99.90;;;;;;4998794;28;20109;-72
2022/09/05 08:32:09;;;;;;;5.10;4.38;;;20.40;99.90;;;;;;4999843;28;20054;-71
2022/09/05 08:34:42;;;;;;;5.80;4.88;;;20.60;99.90;;;;;;5000123;28;20133;-70
2022/09/05 08:37:11;;;;;;;5.13;4.68;;;20.40;99.90;;;;;;4999840;28;20052;-70
2022/09/05 08:39:38;;;;;;;4.63;4.25;;;20.50;99.90;;;;;;4999417;28;20042;-71
2022/09/05 08:42:42;;;;;;;6.68;5.28;;;20.50;99.90;;;;;;5000116;28;20535;-72
2022/09/05 08:45:49;;;;;;;5.10;4.68;;;20.60;99.90;;;;;;4997839;28;20065;-71
2022/09/05 08:48:27;;;;;;;6.93;5.07;;;20.70;99.20;;;;;;4994962;28;20403;-71
2022/09/05 08:51:23;;;;;;;5.63;5.05;;;20.70;99.40;;;;;;4996149;28;20054;-72
2022/09/05 08:54:17;;;;;;;5.45;4.82;;;20.90;99.20;;;;;;4996813;28;20038;-70
2022/09/05 08:56:48;;;;;;;7.30;4.70;;;20.70;99.30;;;;;;4996021;28;20042;-71
2022/09/05 08:59:35;;;;;;;5.15;4.43;;;20.90;99.30;;;;;;4995588;28;20054;-71
2022/09/05 09:02:25;;;;;;;5.10;4.70;;;20.90;99.40;;;;;;4996247;28;20057;-71
2022/09/05 09:05:27;;;;;;;6.93;4.80;;;21.00;99.50;;;;;;4996043;28;20046;-70
2022/09/05 09:08:01;;;;;;;5.88;3.72;;;21.20;99.60;;;;;;4996271;28;20070;-71
2022/09/05 09:11:04;;;;;;;6.07;4.78;;;21.10;99.90;;;;;;4996410;28;20061;-71
2022/09/05 09:13:56;;;;;;;5.25;4.75;;;21.10;99.40;;;;;;4995089;28;20069;-72
2022/09/05 09:16:37;;;;;;;7.27;4.40;;;21.30;99.20;;;;;;4996164;28;20121;-71
2022/09/05 09:19:24;;;;;;;5.28;3.63;;;21.30;99.30;;;;;;4995930;28;20062;-71
2022/09/05 09:22:22;;;;;;;3.95;3.47;;;21.40;98.80;;;;;;4995752;28;20058;-71
2022/09/05 09:25:11;;;;;;;7.55;4.28;;;21.50;98.80;;;;;;4995467;28;20046;-72
2022/09/05 09:28:04;;;;;;;5.63;3.80;;;21.40;99.20;;;;;;4995948;28;20057;-71
2022/09/05 09:30:34;;;;;;;3.78;3.25;;;21.60;99.30;;;;;;4995666;28;20050;-71
2022/09/05 09:33:06;;;;;;;4.20;3.40;;;21.50;99.30;;;;;;4995440;28;20054;-71
2022/09/05 09:35:55;;;;;;;4.38;2.95;;;21.60;99.30;;;;;;4995431;28;20107;-71
2022/09/05 09:38:38;;;;;;;3.85;2.80;;;21.60;98.90;;;;;;4995196;28;20046;-71
2022/09/05 09:41:03;;;;;;;4.80;3.13;;;21.70;99.30;;;;;;4995332;28;20129;-71
2022/09/05 09:44:04;;;;;;;4.05;3.40;;;21.80;99.30;;;;;;4995164;28;20486;-71
2022/09/05 09:46:45;;;;;;;3.92;3.45;;;21.90;98.80;;;;;;4980925;28;20378;-71
2022/09/05 09:49:22;;;;;;;4.40;3.53;;;21.90;98.50;;;;;;4994818;28;20125;-71
2022/09/05 09:51:57;;;;;;;3.95;3.10;;;21.90;98.00;;;;;;4995091;28;20050;-71
2022/09/05 09:54:41;;;;;;;4.28;2.88;;;22.00;97.40;;;;;;4995135;28;20081;-71
2022/09/05 09:57:43;;;;;;;4.07;2.90;;;22.10;97.50;;;;;;4994179;28;20113;-71
2022/09/05 10:00:19;;;;;;;3.90;2.83;;;22.20;97.50;;;;;;4995319;28;20109;-71
2022/09/05 10:03:05;;;;;;;3.17;2.58;;;22.20;97.30;;;;;;4994788;28;20090;-76
2022/09/05 10:05:37;;;;;;;4.57;3.05;;;22.40;97.50;;;;;;4994183;28;20129;-74
2022/09/05 10:08:38;;;;;;;4.80;3.15;;;22.40;98.00;;;;;;4995374;28;20472;-71
2022/09/05 10:11:17;;;;;;;5.72;2.97;;;22.40;97.50;;;;;;4993284;28;20383;-72
2022/09/05 10:14:12;;;;;;;3.65;2.90;;;22.60;97.40;;;;;;4995917;28;20399;-74
2022/09/05 10:17:13;;;;;;;4.40;2.55;;;22.60;97.50;;;;;;4994765;28;20042;-74
2022/09/05 10:20:16;;;;;;;3.33;3.00;;;22.70;98.00;;;;;;4993973;28;20069;-74
2022/09/05 10:23:20;;;;;;;4.40;2.70;;;22.80;97.80;;;;;;4995345;28;20105;-76
2022/09/05 10:26:10;;;;;;;4.40;2.70;;;22.90;98.00;;;;;;4994130;28;20035;-76
2022/09/05 10:29:11;;;;;;;5.10;2.60;;;23.00;98.20;;;;;;4994462;28;20058;-77
2022/09/05 10:32:23;;;;;;;6.47;3.47;;;23.70;98.80;;;;;;4994572;28;20104;-76
2022/09/05 10:34:58;;;;;;;4.03;2.70;;;23.00;99.30;;;;;;4976259;28;20125;-77
2022/09/05 10:37:39;;;;;;;5.57;3.00;;;23.20;99.50;;;;;;4991491;28;20148;-77
2022/09/05 10:40:13;;;;;;;5.40;2.60;;;23.80;99.70;;;;;;4994007;28;20042;-76
2022/09/05 10:42:46;;;;;;;4.05;2.90;;;23.40;99.50;;;;;;4994599;28;20108;-77
2022/09/05 10:45:18;;;;;;;6.95;2.63;;;23.50;99.90;;;;;;4994125;28;20050;-76
2022/09/05 10:48:00;;;;;;;5.75;2.67;;;23.50;99.90;;;;;;4993327;28;20118;-76
2022/09/05 10:50:31;;;;;;;4.07;2.58;;;;;;;;;;4995218;28;20056;-75
2022/09/05 10:53:24;;;;;;;3.97;1.85;;;23.70;99.90;;;;;;4993962;28;20050;-76
2022/09/05 10:56:21;;;;;;;3.33;2.00;;;23.80;99.90;;;;;;4993141;28;20062;-76
2022/09/05 10:59:03;;;;;;;2.80;2.20;;;23.90;99.90;;;;;;4994184;28;20062;-75
2022/09/05 11:02:04;;;;;;;4.25;2.00;;;23.90;99.90;;;;;;4994955;28;20073;-77
2022/09/05 11:04:47;;;;;;;8.05;2.65;;;23.90;99.90;;;;;;4992390;28;20062;-77
2022/09/05 11:07:50;;;;;;;3.50;2.22;;;24.10;99.90;;;;;;4993192;28;20125;-77
2022/09/05 11:10:22;;;;;;;2.47;2.10;;;24.10;99.90;;;;;;4991793;28;20058;-78
2022/09/05 11:13:02;;;;;;;3.60;2.33;;;24.70;99.90;;;;;;4993282;28;20125;-77
2022/09/05 11:15:56;;;;;;;2.85;2.55;;;24.20;99.90;;;;;;4977626;28;20433;-79
2022/09/05 11:18:37;;;;;;;3.40;1.88;;;24.20;99.90;;;;;;4992333;28;20056;-79
2022/09/05 11:21:27;;;;;;;4.07;2.25;;;24.50;99.90;;;;;;4993612;28;20085;-78
2022/09/05 11:23:56;;;;;;;4.50;1.80;;;24.40;99.90;;;;;;4992703;28;20054;-78
2022/09/05 11:26:35;;;;;;;2.55;2.08;;;24.50;99.90;;;;;;4994021;28;20042;-77
2022/09/05 11:29:23;;;;;;;2.67;2.30;;;24.50;99.90;;;;;;4992860;28;20046;-79
2022/09/05 11:31:57;;;;;;;4.32;2.35;;;24.50;99.90;;;;;;4994161;28;20193;-76
2022/09/05 11:34:37;;;;;;;2.88;2.30;;;24.50;99.90;;;;;;4992870;28;20352;-76
2022/09/05 11:37:18;;;;;;;4.32;2.55;;;24.60;99.90;;;;;;4993292;28;20038;-77
2022/09/05 11:40:17;;;;;;;3.35;2.40;;;24.60;99.90;;;;;;4993267;28;20050;-79
2022/09/05 11:42:53;;;;;;;3.13;2.60;;;24.90;99.90;;;;;;4992808;28;20042;-77
2022/09/05 11:45:37;;;;;;;4.65;1.90;;;;;;;;;;4993620;28;20090;-76
2022/09/05 11:48:25;;;;;;;4.90;2.30;;;24.70;99.90;;;;;;4993814;28;20038;-77
2022/09/05 11:51:24;;;;;;;4.38;1.90;;;24.80;99.90;;;;;;4994067;28;20046;-76
2022/09/05 11:54:02;;;;;;;1.88;1.60;;;24.90;99.90;;;;;;4993372;28;20050;-76
2022/09/05 11:57:09;;;;;;;2.85;1.70;;;25.20;99.90;;;;;;4992488;28;20054;-76
2022/09/05 11:59:47;;;;;;;2.75;1.75;;;24.90;97.00;;;;;;4992168;28;20050;-76
2022/09/05 12:02:31;;;;;;;4.85;1.80;;;25.30;99.10;;;;;;4992165;28;20521;-78
2022/09/05 12:05:15;;;;;;;3.13;1.40;;;25.20;94.60;;;;;;4993578;28;20049;-78
2022/09/05 12:08:05;;;;;;;2.08;1.58;;;25.10;91.10;;;;;;4993403;28;20051;-77
2022/09/05 12:11:01;;;;;;;7.25;1.90;;;25.10;90.60;;;;;;4993834;28;20050;-77
2022/09/05 12:14:05;;;;;;;2.55;1.42;;;25.30;91.10;;;;;;4993150;28;20054;-80
2022/09/05 12:16:43;;;;;;;3.00;1.83;;;25.30;98.80;;;;;;4992883;28;20511;-77
2022/09/05 12:19:30;;;;;;;2.40;2.00;;;25.70;99.60;;;;;;4993177;28;20050;-77
2022/09/05 12:22:19;;;;;;;2.78;1.85;;;25.70;99.40;;;;;;4996779;28;20050;-76
2022/09/05 12:24:51;;;;;;;6.53;1.90;;;25.70;99.60;;;;;;4996478;28;20100;-76
2022/09/05 12:27:20;;;;;;;3.67;1.65;;;25.60;98.20;;;;;;4996587;28;20046;-77
2022/09/05 12:29:55;;;;;;;4.35;1.92;;;25.60;98.50;;;;;;4996190;28;20510;-77
2022/09/05 12:32:24;;;;;;;4.65;1.77;;;25.60;98.10;;;;;;4995446;28;20056;-77
2022/09/05 12:34:54;;;;;;;4.50;1.70;;;25.60;97.20;;;;;;4996689;28;20077;-78
2022/09/05 12:37:22;;;;;;;1.55;1.38;;;25.60;93.40;;;;;;4995329;28;20082;-75
2022/09/05 12:39:58;;;;;;;1.95;1.60;;;25.70;92.90;;;;;;4996174;28;20137;-76
2022/09/05 12:42:54;;;;;;;1.67;1.50;;;25.80;92.90;;;;;;4996411;28;20054;-76
2022/09/05 12:46:01;;;;;;;2.40;1.63;;;25.80;92.20;;;;;;4995909;28;20149;-76
2022/09/05 12:49:01;;;;;;;2.83;1.73;;;25.90;92.10;;;;;;4996421;28;20094;-75
2022/09/05 12:51:32;;;;;;;3.15;1.70;;;25.90;91.70;;;;;;4997069;28;20057;-76
2022/09/05 12:54:08;;;;;;;3.95;1.65;;;26.00;91.20;;;;;;4997138;28;20130;-76
2022/09/05 12:57:00;;;;;;;2.50;1.48;;;25.90;91.20;;;;;;4996433;28;20034;-76
2022/09/05 12:59:28;;;;;;;2.50;1.70;;;26.10;91.10;;;;;;4995875;28;20062;-77
2022/09/05 13:02:04;;;;;;;1.60;1.50;;;26.10;91.20;;;;;;4996341;28;20046;-76
2022/09/05 13:04:45;;;;;;;3.00;1.83;;;26.00;91.20;;;;;;4996398;28;20054;-76
2022/09/05 13:07:20;;;;;;;3.95;1.58;;;25.90;91.10;;;;;;4994808;28;20402;-77
2022/09/05 13:09:56;;;;;;;2.65;2.00;;;25.90;91.00;;;;;;4996061;28;20104;-77
2022/09/05 13:12:35;;;;;;;2.80;1.65;;;26.00;90.90;;;;;;4995941;28;20076;-76
2022/09/05 13:15:06;;;;;;;3.35;1.52;;;25.90;91.40;;;;;;4995735;28;20474;-77
2022/09/05 13:17:40;;;;;;;4.43;2.00;;;25.90;87.80;;;;;;4996187;28;20096;-76
2022/09/05 13:20:35;;;;;;;3.53;1.63;;;26.00;87.40;;;;;;4997300;28;20129;-76
2022/09/05 13:23:22;;;;;;;2.85;1.70;;;26.10;87.80;;;;;;4995894;28;20058;-77
2022/09/05 13:26:04;;;;;;;3.85;1.70;;;26.10;86.90;;;;;;4996846;28;20043;-77
2022/09/05 13:28:50;;;;;;;;;;;26.30;88.60;;;;;;4997077;28;20551;-77
2022/09/05 13:31:35;;;;;;;3.08;1.40;;;26.20;90.40;;;;;;4995276;28;19922;-78
2022/09/05 13:34:10;;;;;;;2.55;1.63;;;26.30;91.20;;;;;;4995008;28;20097;-77
2022/09/05 13:37:02;;;;;;;2.08;1.30;;;26.30;91.40;;;;;;4996016;28;20081;-77
2022/09/05 13:39:58;;;;;;;2.45;1.40;;;26.50;91.80;;;;;;4995287;28;20054;-77
2022/09/05 13:42:27;;;;;;;3.03;1.73;;;26.60;93.30;;;;;;4996358;28;20081;-77
2022/09/05 13:44:58;;;;;;;2.47;1.67;;;26.70;94.90;;;;;;4995936;28;20038;-77
2022/09/05 13:47:38;;;;;;;2.55;1.58;;;26.40;95.50;;;;;;4995858;28;20038;-77
2022/09/05 13:50:30;;;;;;;2.42;1.50;;;26.40;94.80;;;;;;4996396;28;20108;-77
2022/09/05 13:53:14;;;;;;;2.25;1.63;;;26.40;94.60;;;;;;4995891;28;20057;-76
2022/09/05 13:55:52;;;;;;;1.92;1.73;;;26.40;95.10;;;;;;4995764;28;20046;-76
2022/09/05 13:58:40;;;;;;;3.03;1.55;;;26.40;95.80;;;;;;4995435;28;20098;-77
2022/09/05 14:01:19;;;;;;;2.70;1.60;;;26.40;95.00;;;;;;4995773;28;20085;-77
2022/09/05 14:04:23;;;;;;;2.50;1.50;;;26.40;91.70;;;;;;4995836;28;20098;-77
2022/09/05 14:07:04;;;;;;;2.65;1.30;;;26.40;93.30;;;;;;4995135;28;20071;-76
2022/09/05 14:10:08;;;;;;;2.83;1.77;;;26.40;95.30;;;;;;4995421;28;20061;-76
2022/09/05 14:13:00;;;;;;;2.55;1.55;;;26.60;95.00;;;;;;4995528;28;20046;-75
2022/09/05 14:15:28;;;;;;;2.90;2.00;;;26.40;95.40;;;;;;4994449;28;20495;-77